Flight Track Log - Related Links

Times and Time Zones

All times are in EDT time to prevent confusion due to time zone crossing. See the KAP46 flight status page for this flight to view local times or setup timezone preferences in your user account.

Time Position Orientation Groundspeed Altitude Reporting Facility
EDT Latitude Longitude Course Direction KTS MPH feet Rate Location/Type
Sat 01:13:19 PM 44.6753 -74.7756 158° South 151 174 5,800  Level Boston Center
Sat 01:14:16 PM 44.6339 -74.7533 159° South 151 174 6,400 610 Climbing Boston Center
Sat 01:15:17 PM 44.5925 -74.7372 165° South 156 180 7,000 492 Climbing Boston Center
Sat 01:16:18 PM 44.5494 -74.7122 158° South 156 180 7,400 248 Climbing Boston Center
Sat 01:17:18 PM 44.5061 -74.6872 158° South 161 185 7,500 50 Climbing Boston Center
Sat 01:18:00 PM 44.8165 -74.7762 158° South  Level FlightAware Approximate
Sat 01:18:18 PM 44.4586 -74.6650 162° South 172 198 7,500  Level Boston Center
Sat 01:19:19 PM 44.4111 -74.6431 162° South 178 205 7,500  Level Boston Center
Sat 01:20:16 PM 44.3764 -74.6128 148° Southeast 185 213 7,500  Level Boston Center
Sat 01:21:16 PM 44.3206 -74.5844 160° South 186 214 7,500  Level Boston Center
Sat 01:22:17 PM 44.2731 -74.5625 162° South 186 214 7,500  Level Boston Center
Sat 01:23:18 PM 44.2275 -74.5436 163° South 186 214 7,500  Level Boston Center
Sat 01:24:18 PM 44.1800 -74.5214 161° South 181 208 7,500  Level Boston Center
Sat 01:25:18 PM 44.1325 -74.4997 162° South 181 208 7,500 -51 Level Boston Center
Sat 01:26:16 PM 44.0872 -74.4719 156° South 181 208 7,400 -50 Descending Boston Center
Sat 01:27:17 PM 44.0397 -74.4472 159° South 181 208 7,400  Level Boston Center
Sat 01:28:17 PM 43.9942 -74.4228 159° South 181 208 7,400  Level Boston Center
Sat 01:29:17 PM 43.9467 -74.4008 162° South 181 208 7,400 50 Level Boston Center
Sat 01:30:18 PM 43.8992 -74.3764 160° South 181 208 7,500 50 Climbing Boston Center
Sat 01:31:16 PM 43.8494 -74.3603 167° South 181 208 7,500  Level Boston Center
Sat 01:32:17 PM 43.7997 -74.3414 165° South 181 208 7,500  Level Boston Center
Sat 01:33:18 PM 43.7522 -74.3114 155° Southeast 186 214 7,500 50 Level Boston Center
Sat 01:34:18 PM 43.7047 -74.2839 157° South 186 214 7,600 51 Climbing Boston Center
Sat 01:35:16 PM 43.6592 -74.2594 159° South 186 214 7,600 -51 Level Boston Center
Sat 01:36:16 PM 43.6097 -74.2353 161° South 186 214 7,500 -50 Descending Boston Center
Sat 01:37:17 PM 43.5622 -74.2108 160° South 186 214 7,500  Level Boston Center
Sat 01:38:17 PM 43.5125 -74.1892 162° South 186 214 7,500  Level Boston Center
Sat 01:39:18 PM 43.4669 -74.1681 161° South 186 214 7,500  Level Boston Center
Sat 01:40:19 PM 43.4192 -74.1467 162° South 186 214 7,500  Level Boston Center
Sat 01:41:13 PM 43.3717 -74.1225 160° South 180 207 7,500 -105 Level Boston Center
Sat 01:42:13 PM 43.3242 -74.1011 162° South 185 213 7,300 -298 Descending Boston Center
Sat 01:43:14 PM 43.2703 -74.0739 160° South 197 227 6,900 -328 Descending Boston Center
Sat 01:44:21 PM 43.2142 -74.0553 166° South 192 221 6,600 -369 Descending Boston Center
Sat 01:45:24 PM 43.1647 -74.0256 156° South 192 221 6,100 -484 Descending Boston Center
Sat 01:46:25 PM 43.1108 -73.9958 158° South 192 221 5,600 -470 Descending Boston Center
Sat 01:47:19 PM 43.0675 -73.9719 158° South 196 226 5,200 -417 Descending Boston Center
Sat 01:48:20 PM 43.0158 -73.9336 152° Southeast 196 226 4,800 -446 Descending Boston Center
Sat 01:49:20 PM 42.9683 -73.9014 154° Southeast 197 227 4,300 -550 Descending Boston Center
Sat 01:50:20 PM 42.9208 -73.8633 150° Southeast 198 228 3,700 -447 Descending Boston Center
Sat 01:50:54 PM 42.9044 -73.8517 152° Southeast 191 220 3,600 -259 Descending Boston Center
Sat 01:52:16 PM 42.8425 -73.7908 144° Southeast 168 193 3,200 -252 Descending Boston Center
Sat 01:53:17 PM 42.8033 -73.7589 149° Southeast 181 208 3,000 -689 Descending Boston Center
Sat 01:54:18 PM 42.7725 -73.7158 134° Southeast 150 173 1,800 -945 Descending Boston Center
Sat 01:55:24 PM 42.7514 -73.7492 229° Southwest 100 115 1,000 -7 Descending Boston Center
Sat 01:57:00 PM 42.7333 -73.8000 170° South  Level FlightAware Approximate
Sat 02:04:00 PM 42.7491 -73.8020 170° South  Level Estimated
Sat 02:05:00 PM 42.7491 -73.8020 170° South  Level Estimated
Sat 02:06:00 PM 42.7491 -73.8020 170° South  Level Estimated
Sat 02:07:00 PM 42.7491 -73.8020 170° South  Level Estimated
Sat 02:36:51 PM 42.7522 -73.8453 284° West 97 112 1,500  Level Boston Center
Sat 02:37:53 PM 42.7772 -73.8572 341° North 104 120 2,000 516 Climbing Boston Center
Sat 02:38:59 PM 42.8061 -73.8692 343° North 103 119 2,600 567 Climbing Boston Center
Sat 02:40:00 PM 42.8372 -73.8842 341° North 107 123 3,200 585 Climbing Boston Center
Sat 02:41:02 PM 42.8661 -73.8989 340° North 112 129 3,800 656 Climbing Boston Center
Sat 02:42:08 PM 42.8994 -73.9111 345° North 116 133 4,600 678 Climbing Boston Center
Sat 02:42:57 PM 42.9264 -73.9231 342° North 118 136 5,100 590 Climbing Boston Center
Sat 02:44:10 PM 42.9636 -73.9411 340° North 122 140 5,800 575 Climbing Boston Center

Login

Don't have an account? Register now (free) for customized features, flight alerts, and more!